Time;durP1;ratioP1;P1;durP2;ratioP2;P2;SDS_P1;SDS_P2;PMS_P1;PMS_P2;Temp;Humidity;BMP_temperature;BMP_pressure;BME280_temperature;BME280_humidity;BME280_pressure;Samples;Min_cycle;Max_cycle;Signal;HPM_P1;HPM_P2
2021/11/01 00:01:29;;;;;;;152.43;82.28;;;;;;;6.08;64.32;95107.28;4928013;29;20397;-80
2021/11/01 00:03:54;;;;;;;160.55;84.03;;;;;;;6.10;64.37;95104.50;4919449;29;20032;-81
2021/11/01 00:06:20;;;;;;;166.20;88.38;;;;;;;6.05;65.43;95106.91;4928124;29;20043;-81
2021/11/01 00:08:46;;;;;;;123.28;69.43;;;;;;;6.13;65.69;95111.84;4911136;29;20420;-80
2021/11/01 00:11:11;;;;;;;135.07;71.38;;;;;;;6.07;64.49;95110.06;4946133;29;20035;-79
2021/11/01 00:13:36;;;;;;;124.55;71.38;;;;;;;5.99;64.53;95109.25;4943490;29;20047;-80
2021/11/01 00:16:02;;;;;;;152.65;81.68;;;;;;;6.01;64.57;95114.22;4927402;29;20035;-80
2021/11/01 00:18:27;;;;;;;140.88;75.45;;;;;;;5.98;65.24;95112.81;4927542;29;20111;-80
2021/11/01 00:20:53;;;;;;;103.82;56.17;;;;;;;6.04;65.08;95111.28;4918379;29;20036;-80
2021/11/01 00:23:18;;;;;;;130.27;67.20;;;;;;;6.10;64.22;95107.09;4912952;29;20545;-80
2021/11/01 00:25:44;;;;;;;115.90;66.97;;;;;;;6.05;64.16;95102.53;4926515;29;20038;-80
2021/11/01 00:28:11;;;;;;;123.72;64.07;;;;;;;6.03;63.53;95108.88;4943671;29;20035;-81
2021/11/01 00:30:37;;;;;;;160.25;84.88;;;;;;;5.99;64.09;95104.09;4943971;29;20415;-80
2021/11/01 00:33:02;;;;;;;167.77;86.90;;;;;;;5.94;63.57;95105.69;4926050;29;20728;-81
2021/11/01 00:35:28;;;;;;;160.68;88.20;;;;;;;5.86;63.88;95104.06;4926827;29;20032;-80
2021/11/01 00:37:53;;;;;;;178.13;90.95;;;;;;;5.92;63.02;95105.09;4911444;29;20044;-79
2021/11/01 00:40:19;;;;;;;182.38;93.07;;;;;;;5.88;63.42;95102.06;4911941;29;20030;-80
2021/11/01 00:42:47;;;;;;;166.77;91.80;;;;;;;5.85;62.97;95096.47;4941335;29;20106;-80
2021/11/01 00:45:12;;;;;;;174.57;88.45;;;;;;;5.83;63.80;95091.50;4946197;29;20047;-80
2021/11/01 00:47:38;;;;;;;133.70;77.00;;;;;;;5.81;63.22;95101.25;4913781;29;20063;-80
2021/11/01 00:50:04;;;;;;;128.52;74.53;;;;;;;5.77;64.30;95089.72;4913838;29;20856;-80
2021/11/01 00:52:30;;;;;;;122.38;68.72;;;;;;;5.76;64.12;95084.75;4929645;29;20039;-80
2021/11/01 00:55:33;;;;;;;124.63;66.43;;;;;;;5.65;63.65;95065.47;4915183;29;20135;-80
2021/11/01 00:57:59;;;;;;;109.72;61.28;;;;;;;5.76;64.30;95080.41;4947448;29;20051;-80
2021/11/01 01:00:24;;;;;;;115.10;62.17;;;;;;;5.65;64.90;95081.75;4946915;29;20074;-80
2021/11/01 01:02:50;;;;;;;104.57;60.03;;;;;;;5.66;64.43;95072.22;4947735;29;20567;-80
2021/11/01 01:05:15;;;;;;;110.03;58.00;;;;;;;5.66;64.64;95064.47;4917261;29;20097;-80
2021/11/01 01:07:41;;;;;;;104.82;57.80;;;;;;;5.56;64.99;95071.81;4916044;29;20043;-80
2021/11/01 01:10:07;;;;;;;115.40;59.08;;;;;;;5.54;64.57;95060.91;4933479;29;20530;-80
2021/11/01 01:12:42;;;;;;;125.40;63.03;;;;;;;5.56;64.83;95061.50;4923073;29;20068;-80
2021/11/01 01:15:11;;;;;;;113.85;62.90;;;;;;;5.56;64.82;95058.91;4947789;29;20186;-80
2021/11/01 01:17:38;;;;;;;128.10;68.78;;;;;;;5.58;64.28;95056.94;4947007;29;20033;-81
2021/11/01 01:20:08;;;;;;;127.10;71.55;;;;;;;5.53;64.57;95047.22;4955298;28;20066;-81
2021/11/01 01:22:34;;;;;;;128.73;69.28;;;;;;;5.54;65.24;95053.16;4937818;29;20514;-80
2021/11/01 01:25:03;;;;;;;138.60;73.72;;;;;;;5.58;65.44;95049.19;4930375;29;20036;-80
2021/11/01 01:27:31;;;;;;;133.68;73.05;;;;;;;5.54;65.60;95043.63;4947178;29;20039;-80
2021/11/01 01:29:57;;;;;;;135.38;73.32;;;;;;;5.57;64.82;95043.25;4936480;29;20078;-80
2021/11/01 01:32:22;;;;;;;178.32;87.75;;;;;;;5.59;65.32;95040.47;4915091;29;20036;-80
2021/11/01 01:34:49;;;;;;;168.50;81.00;;;;;;;5.54;65.31;95040.28;4913967;29;20040;-81
2021/11/01 01:37:15;;;;;;;139.77;72.45;;;;;;;5.53;64.57;95033.50;4921302;29;20926;-81
2021/11/01 01:39:40;;;;;;;142.30;72.00;;;;;;;5.50;64.70;95028.72;4914888;29;20456;-80
2021/11/01 01:42:06;;;;;;;117.07;62.40;;;;;;;5.50;65.13;95031.31;4905061;29;20071;-80
2021/11/01 01:44:32;;;;;;;120.40;63.22;;;;;;;5.49;65.08;95021.97;4929434;29;20487;-80
2021/11/01 01:46:58;;;;;;;112.65;63.20;;;;;;;5.43;64.54;95023.56;4946107;29;20605;-80
2021/11/01 01:49:23;;;;;;;120.13;60.80;;;;;;;5.48;64.48;95025.56;4914524;29;20027;-80
2021/11/01 01:51:49;;;;;;;115.18;59.28;;;;;;;5.49;63.99;95019.41;4946585;29;20036;-80
2021/11/01 01:54:14;;;;;;;97.13;52.58;;;;;;;5.46;63.92;95017.22;4945806;29;20040;-80
2021/11/01 01:56:40;;;;;;;105.05;54.95;;;;;;;5.46;64.24;95007.69;4929851;29;20075;-81
2021/11/01 01:59:08;;;;;;;86.60;47.72;;;;;;;5.50;64.16;95015.84;4937480;23;20040;-81
2021/11/01 02:01:34;;;;;;;76.78;47.38;;;;;;;5.48;64.25;95012.66;4900468;29;20076;-80
2021/11/01 02:03:59;;;;;;;72.72;42.97;;;;;;;5.45;63.38;95008.69;4889547;29;20033;-80
2021/11/01 02:06:28;;;;;;;67.35;38.00;;;;;;;5.44;63.70;95009.69;4874770;29;20040;-80
2021/11/01 02:08:56;;;;;;;69.72;38.45;;;;;;;5.41;63.22;95012.66;4908823;29;20123;-81
2021/11/01 02:11:34;;;;;;;57.67;35.83;;;;;;;5.28;63.77;95003.09;4909692;29;20075;-80
2021/11/01 02:14:00;;;;;;;53.30;31.77;;;;;;;5.22;64.59;95009.03;4886092;29;20124;-81
2021/11/01 02:16:29;;;;;;;57.83;35.35;;;;;;;5.20;64.21;95010.97;4875768;29;20051;-81
2021/11/01 02:18:54;;;;;;;63.00;35.58;;;;;;;5.22;64.47;95005.66;4877479;29;20085;-80
2021/11/01 02:21:42;;;;;;;63.53;35.55;;;;;;;5.20;64.94;95003.25;4888107;29;20033;-80
2021/11/01 02:24:22;;;;;;;66.13;36.40;;;;;;;5.16;64.63;95009.78;4889715;29;20068;-79
2021/11/01 02:26:48;;;;;;;59.75;36.78;;;;;;;5.19;63.61;95014.56;4893637;29;20083;-79
2021/11/01 02:29:14;;;;;;;60.80;37.15;;;;;;;5.17;64.17;95011.38;4896207;29;20115;-79
2021/11/01 02:31:40;;;;;;;68.93;36.83;;;;;;;5.14;64.87;95011.75;4886497;29;20054;-81
2021/11/01 02:34:06;;;;;;;65.03;37.03;;;;;;;5.10;64.84;95010.56;4888490;29;20575;-82
2021/11/01 02:36:34;;;;;;;61.88;37.67;;;;;;;5.04;65.61;95011.31;4871009;29;20040;-78
2021/11/01 02:39:00;;;;;;;58.15;35.17;;;;;;;5.09;65.97;95014.13;4883138;29;20124;-82
2021/11/01 02:41:26;;;;;;;59.83;34.10;;;;;;;5.08;65.97;95012.53;4906016;29;20115;-81
2021/11/01 02:43:53;;;;;;;56.35;31.92;;;;;;;5.10;64.93;95018.31;4908384;29;20072;-82
2021/11/01 02:46:19;;;;;;;59.05;32.83;;;;;;;5.10;65.09;95016.50;4876503;29;20080;-82
2021/11/01 02:48:48;;;;;;;54.85;31.17;;;;;;;5.01;65.36;95016.84;5003793;23;20040;-82
2021/11/01 02:51:15;;;;;;;52.60;32.05;;;;;;;5.07;65.32;95009.19;4906963;29;20151;-81
2021/11/01 02:53:51;;;;;;;70.85;36.10;;;;;;;5.08;64.61;95018.50;4908384;29;20040;-82
2021/11/01 02:56:17;;;;;;;172.15;79.30;;;;;;;5.01;65.34;95007.34;4905267;29;20020;-84
2021/11/01 02:58:52;;;;;;;179.52;81.88;;;;;;;5.03;65.76;95010.53;4906221;29;20567;-82
2021/11/01 03:01:18;;;;;;;147.00;74.65;;;;;;;5.05;65.54;95007.78;4905410;29;20044;-82
2021/11/01 03:03:43;;;;;;;113.38;56.95;;;;;;;5.09;65.03;95006.41;4890094;29;20047;-81
2021/11/01 03:06:10;;;;;;;103.18;56.40;;;;;;;5.06;65.23;94999.06;4888820;29;20405;-81
2021/11/01 03:08:36;;;;;;;93.30;52.83;;;;;;;5.03;65.57;95007.94;4904948;29;20071;-82
2021/11/01 03:11:01;;;;;;;94.25;51.97;;;;;;;5.04;65.55;95006.16;4906059;29;20045;-81
2021/11/01 03:13:29;;;;;;;91.03;52.75;;;;;;;5.08;65.91;95004.81;4905320;29;20051;-82
2021/11/01 03:15:56;;;;;;;109.82;58.85;;;;;;;5.09;65.92;95002.03;4904909;29;20055;-81
2021/11/01 03:18:21;;;;;;;113.20;60.40;;;;;;;5.10;66.40;95001.06;4888704;29;20051;-81
2021/11/01 03:20:47;;;;;;;107.38;56.30;;;;;;;5.12;66.89;94995.69;4905812;29;20037;-81
2021/11/01 03:23:20;;;;;;;97.72;54.40;;;;;;;5.18;66.24;95002.66;4889853;29;20040;-81
2021/11/01 03:25:57;;;;;;;105.93;54.97;;;;;;;5.21;66.24;94991.97;4905252;29;20048;-81
2021/11/01 03:28:22;;;;;;;102.80;54.28;;;;;;;5.25;66.14;94990.59;4903351;29;20043;-82
2021/11/01 03:30:48;;;;;;;101.93;53.42;;;;;;;5.22;66.36;94993.56;4906248;29;20142;-82
2021/11/01 03:33:14;;;;;;;100.32;52.75;;;;;;;5.17;66.66;95001.06;4891683;29;20036;-82
2021/11/01 03:35:39;;;;;;;98.03;54.90;;;;;;;5.17;67.24;94990.75;4873728;29;20040;-81
2021/11/01 03:38:10;;;;;;;107.40;56.33;;;;;;;5.19;66.06;94991.34;4904331;29;20533;-81
2021/11/01 03:40:37;;;;;;;99.68;54.78;;;;;;;5.26;66.14;94984.44;4904742;29;20127;-81
2021/11/01 03:43:05;;;;;;;91.70;55.65;;;;;;;5.27;66.33;94990.41;4902040;29;20119;-81
2021/11/01 03:45:32;;;;;;;94.40;53.22;;;;;;;5.30;66.39;94993.38;4904619;29;20177;-81
2021/11/01 03:48:03;;;;;;;95.05;52.97;;;;;;;5.28;65.41;94994.56;4905324;29;20474;-82
2021/11/01 03:50:34;;;;;;;94.55;51.05;;;;;;;5.27;66.49;94991.19;4903759;29;20048;-81
2021/11/01 03:53:01;;;;;;;99.13;55.20;;;;;;;5.26;66.00;94984.44;4890719;29;20032;-81
2021/11/01 03:55:29;;;;;;;124.10;63.78;;;;;;;5.22;65.99;94987.63;4887893;29;20469;-80
2021/11/01 03:57:55;;;;;;;186.55;99.40;;;;;;;5.23;65.12;94978.88;4889854;29;20040;-81
2021/11/01 04:00:22;;;;;;;264.50;136.77;;;;;;;5.15;64.55;94979.84;4889200;29;20128;-81
2021/11/01 04:02:48;;;;;;;265.23;139.95;;;;;;;5.11;65.38;94982.03;4891197;29;20047;-80
2021/11/01 04:05:13;;;;;;;232.70;124.32;;;;;;;5.17;64.58;94979.66;4919445;29;20041;-80
2021/11/01 04:07:39;;;;;;;228.45;124.65;;;;;;;5.21;63.97;94981.66;4888683;29;20029;-81
2021/11/01 04:10:07;;;;;;;238.48;122.55;;;;;;;5.15;64.74;94982.41;4905157;29;20039;-81
2021/11/01 04:12:42;;;;;;;208.70;117.38;;;;;;;5.11;64.77;94971.72;4872663;29;20032;-82
2021/11/01 04:15:15;;;;;;;211.88;116.45;;;;;;;5.05;64.33;94971.69;4904227;29;20109;-82
2021/11/01 04:22:38;;;;;;;176.13;99.60;;;;;;;4.98;66.41;94970.88;4905433;29;20413;-82
2021/11/01 04:25:05;;;;;;;133.10;73.72;;;;;;;5.03;66.70;94963.34;4904850;29;20033;-82
2021/11/01 04:27:30;;;;;;;183.00;99.97;;;;;;;5.00;66.30;94964.53;4954706;23;20023;-82
2021/11/01 04:29:57;;;;;;;215.98;117.80;;;;;;;5.01;65.40;94955.00;4921014;29;20044;-82
2021/11/01 04:35:00;;;;;;;235.57;134.48;;;;;;;4.92;64.03;94951.03;4897290;29;20048;-81
2021/11/01 04:37:27;;;;;;;236.05;131.00;;;;;;;4.86;64.37;94962.88;4896734;29;20041;-82
2021/11/01 04:40:06;;;;;;;224.95;128.52;;;;;;;4.90;64.68;94958.16;4883285;29;20064;-82
2021/11/01 04:53:09;;;;;;;282.27;158.18;;;;;;;4.76;64.91;94952.94;4900324;29;20107;-82
2021/11/01 04:55:35;;;;;;;303.38;175.80;;;;;;;4.72;64.73;94956.91;4898822;29;20029;-81
2021/11/01 04:58:01;;;;;;;291.73;167.85;;;;;;;4.78;64.49;94947.59;4883144;29;20071;-80
2021/11/01 05:00:26;;;;;;;253.85;147.23;;;;;;;4.81;64.16;94955.75;4899755;29;20063;-82
2021/11/01 05:03:06;;;;;;;184.18;103.22;;;;;;;4.82;64.96;94952.19;4901304;29;20060;-81
2021/11/01 05:05:33;;;;;;;229.50;129.07;;;;;;;4.79;65.03;94952.56;4899201;29;20029;-81
2021/11/01 05:08:00;;;;;;;240.35;136.45;;;;;;;4.70;65.50;94958.06;4897760;29;20056;-82
2021/11/01 05:10:31;;;;;;;246.82;133.23;;;;;;;4.75;65.18;94953.16;4897859;29;20045;-81
2021/11/01 05:12:57;;;;;;;239.35;127.97;;;;;;;4.74;64.46;94954.94;4899488;29;20059;-81
2021/11/01 05:22:50;;;;;;;173.73;86.88;;;;;;;4.90;63.65;94963.31;4901296;29;20047;-81
2021/11/01 05:35:36;;;;;;;408.13;256.60;;;;;;;5.31;63.80;94956.28;4898315;29;20084;-80
2021/11/01 05:38:02;;;;;;;466.25;292.35;;;;;;;5.51;63.50;94963.25;4898515;29;20040;-80
2021/11/01 05:40:27;;;;;;;477.92;281.38;;;;;;;5.67;62.80;94960.31;4899611;29;20028;-81
2021/11/01 05:42:53;;;;;;;437.35;262.75;;;;;;;5.84;63.12;94971.81;4898818;29;20036;-81
2021/11/01 05:45:18;;;;;;;428.92;264.15;;;;;;;6.04;62.70;94966.72;4914387;29;20028;-81
2021/11/01 05:47:48;;;;;;;449.80;295.10;;;;;;;6.19;61.42;94975.03;4899321;29;20401;-81
2021/11/01 05:50:13;;;;;;;447.63;288.42;;;;;;;6.35;60.99;94979.00;4881767;29;20162;-80
2021/11/01 05:52:41;;;;;;;456.77;302.85;;;;;;;6.50;61.32;94978.75;4899615;29;20043;-80
2021/11/01 05:55:18;;;;;;;500.45;346.02;;;;;;;6.72;60.64;94976.72;4899828;29;20032;-82
2021/11/01 06:03:24;;;;;;;425.90;241.43;;;;;;;7.94;58.27;94978.25;4900621;29;20044;-80
2021/11/01 06:06:14;;;;;;;392.60;235.75;;;;;;;8.22;57.06;94981.22;4902779;29;20080;-80
2021/11/01 06:14:08;;;;;;;288.33;166.57;;;;;;;8.81;56.08;94989.47;5447790;23;20104;-79
2021/11/01 06:16:33;;;;;;;313.55;167.60;;;;;;;9.01;56.42;94977.84;4918346;29;20032;-79
2021/11/01 06:19:46;;;;;;;;;;;;;;;;;;;;;
2021/11/01 06:22:06;;;;;;;282.40;167.02;;;;;;;9.44;56.39;94979.53;5143598;23;20063;-79
2021/11/01 06:27:17;;;;;;;236.55;143.63;;;;;;;9.91;55.37;94974.44;4955524;29;20529;-79
2021/11/01 06:58:40;;;;;;;168.25;94.82;;;;;;;12.21;50.09;94965.00;5177730;23;20242;-80
2021/11/01 07:14:54;;;;;;;125.40;71.18;;;;;;;13.02;49.69;94955.66;4885442;29;20095;-79
2021/11/01 07:17:43;;;;;;;130.63;74.72;;;;;;;13.29;48.83;94949.72;4898055;29;20036;-80
2021/11/01 07:25:35;;;;;;;151.85;87.07;;;;;;;13.90;47.29;94953.72;4897214;29;20088;-80
2021/11/01 08:22:56;;;;;;;68.22;37.13;;;;;;;13.67;48.05;94923.47;4902071;29;20435;-78
2021/11/01 08:28:27;;;;;;;54.47;30.90;;;;;;;13.65;48.07;94924.72;4902234;29;20039;-77
2021/11/01 08:39:24;;;;;;;44.65;31.70;;;;;;;13.11;49.78;94912.41;4895444;29;20048;-78
2021/11/01 08:42:31;;;;;;;55.75;33.65;;;;;;;12.94;50.31;94901.28;4896081;29;20160;-77
2021/11/01 09:28:26;;;;;;;58.17;34.03;;;;;;;12.81;51.26;94868.50;4861676;29;20107;-77
2021/11/01 09:35:57;;;;;;;48.55;33.90;;;;;;;13.01;50.82;94862.69;4862534;29;20083;-77
2021/11/01 09:43:20;;;;;;;58.97;34.47;;;;;;;13.11;50.17;94849.75;4864289;29;20374;-77
2021/11/01 09:45:47;;;;;;;59.25;35.90;;;;;;;13.10;50.76;94840.34;4856554;29;20104;-77
2021/11/01 09:48:12;;;;;;;55.58;35.40;;;;;;;13.16;50.70;94838.56;4858397;29;20041;-77
2021/11/01 09:50:38;;;;;;;55.65;35.30;;;;;;;13.24;50.51;94837.38;4857443;29;20054;-77
2021/11/01 09:53:13;;;;;;;56.45;36.55;;;;;;;13.14;49.81;94835.44;4856084;29;20037;-77
2021/11/01 09:55:47;;;;;;;58.33;36.72;;;;;;;13.10;50.51;94831.75;4860048;29;20552;-78
2021/11/01 10:00:58;;;;;;;48.60;32.85;;;;;;;13.00;50.67;94821.19;4862313;29;20127;-77
2021/11/01 10:03:42;;;;;;;54.47;33.00;;;;;;;12.97;50.85;94819.88;4874939;29;20036;-82
2021/11/01 10:06:09;;;;;;;59.88;33.10;;;;;;;13.04;50.82;94814.47;4860533;29;20036;-78
2021/11/01 10:11:56;;;;;;;47.33;33.95;;;;;;;13.17;49.92;94804.38;4893879;29;20055;-79
2021/11/01 10:14:25;;;;;;;53.38;33.05;;;;;;;13.16;50.17;94805.41;4878834;29;20037;-79
2021/11/01 10:19:36;;;;;;;55.05;34.00;;;;;;;13.31;50.03;94804.81;4882574;29;20047;-78
2021/11/01 10:22:06;;;;;;;61.70;33.00;;;;;;;13.35;49.65;94795.44;4901257;29;20048;-78
2021/11/01 10:24:40;;;;;;;51.45;31.35;;;;;;;13.29;49.96;94787.81;4875496;29;20048;-79
2021/11/01 10:27:15;;;;;;;51.42;32.72;;;;;;;13.38;49.80;94784.50;4881172;29;20111;-77
2021/11/01 10:29:57;;;;;;;50.28;32.75;;;;;;;13.38;49.63;94787.13;4866583;29;20041;-78
2021/11/01 10:32:34;;;;;;;54.67;32.80;;;;;;;13.33;49.91;94787.06;4872527;29;21725;-79
2021/11/01 10:35:15;;;;;;;46.42;31.60;;;;;;;13.39;49.52;94773.00;4874301;29;20098;-80
2021/11/01 10:38:04;;;;;;;66.18;34.08;;;;;;;13.39;49.47;94765.19;4874051;29;20139;-79
2021/11/01 10:40:34;;;;;;;53.85;32.30;;;;;;;13.46;49.48;94759.72;4882837;29;20535;-81
2021/11/01 10:43:19;;;;;;;54.90;32.10;;;;;;;13.39;49.81;94759.16;4873861;29;20064;-80
2021/11/01 11:13:07;;;;;;;55.67;31.17;;;;;;;13.66;49.61;94707.59;4883282;29;20077;-79
2021/11/01 11:15:35;;;;;;;63.70;31.13;;;;;;;13.62;49.15;94714.38;4882239;29;20048;-79
2021/11/01 11:40:39;;;;;;;47.08;27.17;;;;;;;14.03;47.50;94691.06;4959275;29;20054;-78
2021/11/01 11:49:53;;;;;;;41.15;27.75;;;;;;;13.77;48.41;94679.72;4950542;29;20046;-78
2021/11/01 11:52:23;;;;;;;42.15;27.05;;;;;;;13.71;48.33;94668.47;4930146;29;20043;-78
2021/11/01 11:54:52;;;;;;;41.83;26.70;;;;;;;13.76;48.51;94665.84;4955808;28;20032;-78
2021/11/01 11:57:25;;;;;;;41.28;24.92;;;;;;;13.86;48.14;94664.34;4951959;28;20111;-79
2021/11/01 11:59:53;;;;;;;41.00;26.02;;;;;;;13.93;48.37;94664.88;4964661;28;20069;-79
2021/11/01 12:02:40;;;;;;;45.95;25.85;;;;;;;14.02;47.87;94660.75;4946836;29;20067;-82
2021/11/01 12:05:12;;;;;;;51.45;26.60;;;;;;;14.06;47.28;94664.41;4944260;29;20071;-81
2021/11/01 12:07:45;;;;;;;43.80;25.15;;;;;;;14.01;47.15;94656.56;4945908;28;20039;-82
2021/11/01 12:10:20;;;;;;;45.92;24.45;;;;;;;14.00;47.24;94655.78;4928936;29;20051;-80
2021/11/01 12:13:08;;;;;;;39.45;22.58;;;;;;;14.10;46.73;94657.63;4946819;28;20028;-82
2021/11/01 12:18:05;;;;;;;41.78;23.38;;;;;;;14.08;46.69;94647.41;4928161;29;20511;-81
2021/11/01 12:20:31;;;;;;;42.75;24.50;;;;;;;14.09;46.57;94642.97;4929945;29;20051;-83
2021/11/01 12:23:03;;;;;;;37.70;24.38;;;;;;;14.14;46.58;94640.38;4946291;29;20043;-79
2021/11/01 12:25:35;;;;;;;42.83;24.97;;;;;;;14.22;46.38;94632.03;4948050;29;20031;-80
2021/11/01 12:28:04;;;;;;;33.88;23.60;;;;;;;14.23;46.29;94635.44;4931044;29;20330;-80
2021/11/01 12:30:43;;;;;;;37.88;21.40;;;;;;;14.16;46.34;94627.84;4930701;29;20050;-80
2021/11/01 12:33:10;;;;;;;32.88;21.77;;;;;;;14.15;46.14;94626.25;4990961;23;20053;-79
2021/11/01 12:35:41;;;;;;;33.65;22.25;;;;;;;14.26;46.16;94622.63;4908038;29;20039;-80
2021/11/01 12:38:12;;;;;;;37.97;21.90;;;;;;;14.24;45.89;94621.31;4886119;29;20037;-80
2021/11/01 12:46:23;;;;;;;32.92;19.95;;;;;;;14.32;45.18;94618.97;4919320;29;20527;-80
2021/11/01 12:49:10;;;;;;;33.03;19.75;;;;;;;14.38;44.94;94617.94;4916769;29;20381;-80
2021/11/01 12:57:35;;;;;;;36.22;19.92;;;;;;;14.39;45.86;94610.88;4920580;29;20042;-79
2021/11/01 13:00:01;;;;;;;33.15;19.42;;;;;;;14.41;45.81;94609.56;4921554;29;20040;-80
2021/11/01 13:02:29;;;;;;;25.92;18.75;;;;;;;14.43;45.32;94598.84;4904033;29;20066;-79
2021/11/01 13:05:00;;;;;;;36.00;22.75;;;;;;;14.45;46.62;94604.63;4926380;29;20024;-79
2021/11/01 13:10:08;;;;;;;39.95;21.73;;;;;;;14.53;47.24;94595.47;4901763;29;20078;-79
2021/11/01 13:20:19;;;;;;;30.35;20.45;;;;;;;14.76;46.33;94592.31;4920459;29;20051;-79
2021/11/01 13:22:56;;;;;;;33.40;21.52;;;;;;;14.76;46.38;94594.16;4883725;29;20092;-80
2021/11/01 13:25:29;;;;;;;53.67;22.60;;;;;;;14.69;46.76;94592.59;4926562;29;20061;-79
2021/11/01 13:28:17;;;;;;;36.00;21.95;;;;;;;14.68;47.59;94582.41;4902738;29;20056;-79
2021/11/01 13:38:43;;;;;;;41.05;22.88;;;;;;;14.60;47.82;94586.31;4925435;29;20028;-79
2021/11/01 13:41:11;;;;;;;42.60;22.52;;;;;;;14.52;47.72;94578.22;4886929;29;20075;-79
2021/11/01 13:43:37;;;;;;;38.83;20.75;;;;;;;14.56;48.01;94581.88;4908744;29;20032;-79
2021/11/01 13:46:03;;;;;;;30.60;21.77;;;;;;;14.51;47.66;94582.66;4909220;29;20054;-79
2021/11/01 13:48:30;;;;;;;38.05;21.08;;;;;;;14.42;47.69;94579.75;4923695;29;20036;-78
2021/11/01 13:51:13;;;;;;;31.80;20.92;;;;;;;14.36;47.63;94578.19;4907034;29;20059;-79
2021/11/01 13:54:08;;;;;;;36.50;22.17;;;;;;;14.34;48.21;94577.66;4915240;29;20464;-80
2021/11/01 13:56:44;;;;;;;32.65;21.85;;;;;;;14.26;48.18;94567.69;4916329;29;20051;-80
2021/11/01 14:29:23;;;;;;;36.67;20.52;;;;;;;14.11;48.00;94578.13;4896742;29;20055;-83
2021/11/01 14:55:00;;;;;;;41.85;21.08;;;;;;;14.03;48.39;94578.66;4925191;29;20050;-82
2021/11/01 15:23:11;;;;;;;38.67;21.50;;;;;;;13.36;50.49;94548.91;4905499;29;20039;-83
2021/11/01 15:33:53;;;;;;;68.60;32.75;;;;;;;13.04;51.49;94548.22;4895691;29;20047;-83
2021/11/01 15:42:25;;;;;;;46.72;28.90;;;;;;;12.74;50.70;94538.38;4891569;29;20043;-82
2021/11/01 16:17:22;;;;;;;315.58;165.95;;;;;;;11.83;54.17;94548.81;4903494;29;20051;-80
2021/11/01 16:19:51;;;;;;;319.75;167.82;;;;;;;11.78;54.29;94556.56;4915713;29;20032;-79
2021/11/01 16:22:18;;;;;;;346.30;175.15;;;;;;;11.72;54.62;94560.94;4884507;29;20523;-78
2021/11/01 16:24:44;;;;;;;343.13;195.90;;;;;;;11.70;54.77;94561.16;4884521;29;20040;-79
2021/11/01 16:27:11;;;;;;;305.30;170.38;;;;;;;11.68;54.15;94554.63;4899375;29;20032;-80
2021/11/01 16:32:10;;;;;;;299.77;172.30;;;;;;;11.60;53.86;94555.88;4899559;29;20046;-79
2021/11/01 16:34:37;;;;;;;275.95;157.00;;;;;;;11.60;54.18;94557.69;4877406;29;20034;-79
2021/11/01 16:39:47;;;;;;;332.02;196.52;;;;;;;11.54;54.65;94550.81;4904913;29;20155;-79
2021/11/01 16:42:25;;;;;;;269.10;149.93;;;;;;;11.49;54.83;94553.38;4922103;29;20048;-79
2021/11/01 16:44:51;;;;;;;201.95;108.38;;;;;;;11.42;55.05;94554.38;4902729;29;20032;-80
2021/11/01 16:47:17;;;;;;;156.38;84.32;;;;;;;11.36;54.86;94554.53;4919857;29;20036;-79
2021/11/01 16:49:43;;;;;;;152.35;78.00;;;;;;;11.35;54.69;94553.75;4904470;29;20055;-80
2021/11/01 16:52:15;;;;;;;204.35;110.20;;;;;;;11.35;55.25;94556.34;4882878;29;20068;-79
2021/11/01 16:54:52;;;;;;;199.70;112.03;;;;;;;11.31;55.52;94557.88;4921886;29;20512;-79
2021/11/01 16:57:24;;;;;;;296.30;155.60;;;;;;;11.24;56.04;94559.09;4904381;29;20468;-79
2021/11/01 17:00:26;;;;;;;311.92;172.50;;;;;;;11.16;55.89;94562.88;4927010;29;20043;-79
2021/11/01 17:26:35;;;;;;;523.38;343.75;;;;;;;11.03;56.33;94592.63;4888184;29;20075;-79
2021/11/01 17:37:07;;;;;;;502.83;351.30;;;;;;;10.69;57.36;94596.28;4917566;29;20468;-80
2021/11/01 18:43:21;;;;;;;411.38;264.38;;;;;;;9.25;61.51;94622.50;4895576;29;20048;-87
2021/11/01 18:51:05;;;;;;;383.35;237.90;;;;;;;9.08;61.63;94634.59;4883600;29;20056;-86
2021/11/01 18:53:37;;;;;;;398.42;250.50;;;;;;;9.05;62.84;94642.81;4879831;29;20056;-86
2021/11/01 18:56:08;;;;;;;412.02;248.18;;;;;;;9.04;62.49;94642.03;4894532;29;20040;-86
2021/11/01 18:58:41;;;;;;;443.15;269.88;;;;;;;8.99;61.84;94642.72;4895789;29;20060;-86
2021/11/01 19:01:28;;;;;;;425.92;241.50;;;;;;;8.87;62.35;94623.78;4875111;29;20124;-84
2021/11/01 19:03:55;;;;;;;363.13;197.95;;;;;;;8.88;62.76;94633.13;4892120;29;20053;-86
2021/11/01 20:06:18;;;;;;;466.65;283.80;;;;;;;8.01;64.93;94647.56;4896589;29;20079;-85
2021/11/01 21:25:51;;;;;;;483.73;281.00;;;;;;;7.40;66.30;94615.66;4916541;29;20059;-84
2021/11/01 21:28:17;;;;;;;470.13;274.65;;;;;;;7.41;66.17;94606.09;4915854;29;20032;-84
2021/11/01 21:30:42;;;;;;;495.05;294.42;;;;;;;7.35;66.12;94599.22;4897548;29;20032;-84
2021/11/01 21:33:09;;;;;;;464.77;269.15;;;;;;;7.39;65.74;94593.38;4914792;29;20036;-85
2021/11/01 21:35:44;;;;;;;475.90;274.98;;;;;;;7.37;65.57;94594.59;4914211;29;20033;-84
2021/11/01 21:38:09;;;;;;;424.08;236.55;;;;;;;7.33;66.06;94604.59;4897602;29;20032;-84
2021/11/01 21:40:35;;;;;;;373.25;199.10;;;;;;;7.32;65.06;94597.03;4911765;29;20044;-82
2021/11/01 21:43:00;;;;;;;312.65;166.02;;;;;;;7.22;65.39;94593.16;4907308;29;20036;-84
2021/11/01 21:45:26;;;;;;;303.00;162.43;;;;;;;7.23;65.49;94597.34;4878042;29;20127;-83
2021/11/01 21:47:51;;;;;;;329.15;169.68;;;;;;;7.20;65.63;94590.00;4906173;29;20480;-83
2021/11/01 21:50:17;;;;;;;301.15;157.82;;;;;;;7.17;65.79;94585.28;4893035;29;20036;-82
2021/11/01 21:52:44;;;;;;;261.40;137.68;;;;;;;7.19;65.81;94577.31;4896468;29;20481;-83
2021/11/01 21:55:09;;;;;;;216.07;114.47;;;;;;;7.20;65.75;94576.28;4895233;29;20098;-84
2021/11/01 21:57:54;;;;;;;256.45;130.68;;;;;;;7.10;65.99;94566.44;4903398;29;20024;-84
2021/11/01 22:00:40;;;;;;;231.40;121.82;;;;;;;7.07;65.74;94569.47;4918715;29;20100;-84
2021/11/01 22:22:53;;;;;;;241.82;121.00;;;;;;;6.95;66.39;94560.84;4863224;29;20076;-83
2021/11/01 22:25:30;;;;;;;294.55;134.00;;;;;;;6.91;65.90;94562.28;4862623;29;20041;-83
2021/11/01 22:42:06;;;;;;;348.13;167.70;;;;;;;6.84;65.89;94540.91;4854655;29;20064;-82
2021/11/01 22:58:02;;;;;;;199.02;100.05;;;;;;;6.65;66.31;94534.91;4876971;29;20049;-83
2021/11/01 23:00:51;;;;;;;213.73;106.57;;;;;;;6.57;66.04;94527.44;4859241;29;20053;-83
2021/11/01 23:03:26;;;;;;;199.50;99.20;;;;;;;6.58;66.96;94522.06;4847769;29;20529;-83
2021/11/01 23:33:24;;;;;;;279.00;127.47;;;;;;;6.34;66.49;94491.88;4911705;29;20043;-83
2021/11/01 23:35:51;;;;;;;307.35;135.30;;;;;;;6.31;66.53;94489.72;4894056;29;20033;-82
2021/11/01 23:38:16;;;;;;;339.80;140.13;;;;;;;6.34;65.80;94486.72;4894868;29;20040;-83
2021/11/01 23:40:42;;;;;;;304.30;128.43;;;;;;;6.27;66.06;94486.00;4895935;29;20056;-83
2021/11/01 23:43:12;;;;;;;314.23;123.88;;;;;;;6.28;66.46;94488.38;4893622;29;20036;-83
2021/11/01 23:45:42;;;;;;;289.63;120.30;;;;;;;6.27;66.00;94491.16;4894289;29;20591;-83
2021/11/01 23:48:07;;;;;;;249.52;112.20;;;;;;;6.29;65.43;94476.25;4909683;29;20083;-83
2021/11/01 23:50:34;;;;;;;229.27;105.72;;;;;;;6.21;66.82;94468.78;4910795;29;20591;-82
2021/11/01 23:53:07;;;;;;;222.75;107.13;;;;;;;6.23;65.54;94477.09;4909829;29;20107;-83
2021/11/01 23:55:32;;;;;;;369.75;152.73;;;;;;;6.24;65.77;94481.25;4895509;29;20119;-83
